Time;durP1;ratioP1;P1;durP2;ratioP2;P2;SDS_P1;SDS_P2;PMS_P1;PMS_P2;Temp;Humidity;BMP_temperature;BMP_pressure;BME280_temperature;BME280_humidity;BME280_pressure;Samples;Min_cycle;Max_cycle;Signal;HPM_P1;HPM_P2
2023/12/06 00:01:02;;;;;;;58.50;30.90;;;0.40;99.90;;;;;;5090205;28;20048;-78
2023/12/06 00:03:28;;;;;;;66.97;32.00;;;0.30;99.90;;;;;;5089857;28;20471;-77
2023/12/06 00:05:54;;;;;;;63.17;31.55;;;1.10;99.90;;;;;;5088457;28;20063;-78
2023/12/06 00:08:20;;;;;;;56.58;30.05;;;0.30;99.90;;;;;;5089748;28;20051;-79
2023/12/06 00:10:47;;;;;;;65.50;32.10;;;0.30;99.90;;;;;;5089918;28;20051;-77
2023/12/06 00:13:13;;;;;;;70.43;32.65;;;0.40;99.90;;;;;;5090324;28;20048;-80
2023/12/06 00:15:39;;;;;;;63.72;31.58;;;0.40;99.90;;;;;;5088361;28;20051;-79
2023/12/06 00:18:04;;;;;;;64.28;31.67;;;0.40;99.90;;;;;;5089768;28;20445;-77
2023/12/06 00:20:30;;;;;;;63.65;32.42;;;0.40;99.90;;;;;;5089727;28;20390;-78
2023/12/06 00:22:56;;;;;;;60.78;30.48;;;0.40;99.90;;;;;;5088606;28;20047;-81
2023/12/06 00:25:22;;;;;;;72.72;32.35;;;0.40;99.90;;;;;;5089136;28;20420;-82
2023/12/06 00:27:48;;;;;;;69.05;32.55;;;0.30;99.90;;;;;;5089799;28;20052;-85
2023/12/06 00:30:13;;;;;;;65.78;31.40;;;0.40;99.90;;;;;;5089973;28;20503;-80
2023/12/06 00:32:39;;;;;;;64.15;30.70;;;0.40;99.90;;;;;;5090024;28;20048;-82
2023/12/06 00:35:08;;;;;;;62.50;31.10;;;0.30;99.90;;;;;;5088525;28;20044;-82
2023/12/06 00:37:33;;;;;;;62.38;32.40;;;0.40;99.90;;;;;;5089534;28;20048;-81
2023/12/06 00:39:59;;;;;;;57.72;29.98;;;0.40;99.90;;;;;;5089246;28;20423;-78
2023/12/06 00:42:25;;;;;;;62.47;31.63;;;0.40;99.90;;;;;;5088632;28;20051;-78
2023/12/06 00:44:50;;;;;;;65.65;31.83;;;0.40;99.90;;;;;;5089804;28;20051;-77
2023/12/06 00:47:16;;;;;;;61.92;30.55;;;0.40;99.90;;;;;;5091747;28;20043;-78
2023/12/06 00:49:41;;;;;;;59.40;28.25;;;0.40;99.90;;;;;;5093772;28;20036;-80
2023/12/06 00:52:08;;;;;;;54.22;29.23;;;0.40;99.90;;;;;;5093575;28;20036;-81
2023/12/06 00:54:33;;;;;;;54.28;30.00;;;0.40;99.90;;;;;;5093774;28;20075;-85
2023/12/06 00:56:59;;;;;;;53.25;28.10;;;0.40;99.90;;;;;;5093039;28;20136;-83
2023/12/06 00:59:25;;;;;;;55.38;28.95;;;0.40;99.90;;;;;;5091998;28;20498;-78
2023/12/06 01:01:50;;;;;;;58.42;28.38;;;0.50;99.90;;;;;;5093770;28;20039;-81
2023/12/06 01:04:16;;;;;;;52.10;27.90;;;0.50;99.90;;;;;;5093037;28;20040;-81
2023/12/06 01:06:42;;;;;;;51.72;28.70;;;0.40;99.90;;;;;;5093204;28;20129;-79
2023/12/06 01:09:08;;;;;;;52.83;27.83;;;0.50;99.90;;;;;;5091745;28;20039;-79
2023/12/06 01:11:33;;;;;;;50.35;27.88;;;0.40;99.90;;;;;;5092690;28;20044;-81
2023/12/06 01:13:59;;;;;;;51.40;27.15;;;0.40;99.90;;;;;;5091777;28;20032;-84
2023/12/06 01:16:25;;;;;;;54.80;27.17;;;0.50;99.90;;;;;;5092824;28;20044;-80
2023/12/06 01:18:50;;;;;;;54.10;27.50;;;0.50;99.90;;;;;;5093286;28;20391;-78
2023/12/06 01:21:16;;;;;;;55.78;27.92;;;0.40;99.90;;;;;;5092864;28;20090;-80
2023/12/06 01:23:42;;;;;;;52.13;26.38;;;0.50;99.90;;;;;;5092830;28;20040;-78
2023/12/06 01:26:07;;;;;;;55.70;29.20;;;0.40;99.90;;;;;;5092509;28;20044;-80
2023/12/06 01:28:33;;;;;;;50.08;26.58;;;0.50;99.90;;;;;;5092284;28;20074;-81
2023/12/06 01:30:58;;;;;;;53.20;27.10;;;0.40;99.90;;;;;;5092938;28;20040;-82
2023/12/06 01:33:24;;;;;;;52.92;26.88;;;0.50;99.90;;;;;;5092898;28;20089;-81
2023/12/06 01:35:50;;;;;;;49.20;27.23;;;0.50;99.90;;;;;;5092475;28;20049;-85
2023/12/06 01:38:15;;;;;;;50.60;27.77;;;0.50;99.90;;;;;;5092553;28;20043;-82
2023/12/06 01:40:41;;;;;;;51.10;27.63;;;0.50;99.90;;;;;;5092537;28;20052;-79
2023/12/06 01:43:07;;;;;;;57.63;28.27;;;0.50;99.90;;;;;;5091691;28;20040;-80
2023/12/06 01:45:33;;;;;;;52.60;27.55;;;0.50;99.90;;;;;;5091015;28;20044;-80
2023/12/06 01:47:59;;;;;;;47.47;26.13;;;0.50;99.90;;;;;;5092420;28;20497;-83
2023/12/06 01:50:26;;;;;;;53.65;27.52;;;0.50;99.90;;;;;;5092214;28;20407;-85
2023/12/06 01:52:57;;;;;;;49.78;26.55;;;0.50;99.90;;;;;;5091125;28;20032;-79
2023/12/06 01:55:23;;;;;;;54.97;28.40;;;0.50;99.90;;;;;;5092049;28;20044;-78
2023/12/06 01:57:49;;;;;;;50.33;28.17;;;0.50;99.90;;;;;;5091721;28;20209;-81
2023/12/06 02:00:15;;;;;;;51.65;27.17;;;0.50;99.90;;;;;;5090199;28;20108;-78
2023/12/06 02:02:41;;;;;;;47.92;26.20;;;0.50;99.90;;;;;;5092439;28;20047;-84
2023/12/06 02:05:08;;;;;;;46.17;25.17;;;0.50;99.90;;;;;;5091347;28;20047;-80
2023/12/06 02:07:35;;;;;;;52.20;27.80;;;0.60;99.90;;;;;;5091865;28;20150;-80
2023/12/06 02:10:02;;;;;;;53.45;28.45;;;0.50;99.90;;;;;;5092024;28;20032;-79
2023/12/06 02:12:27;;;;;;;53.78;28.40;;;0.50;99.90;;;;;;5090550;28;20055;-78
2023/12/06 02:14:53;;;;;;;50.40;26.42;;;0.50;99.90;;;;;;5091051;28;20040;-81
2023/12/06 02:17:19;;;;;;;51.63;27.33;;;0.50;99.90;;;;;;5091961;28;20048;-84
2023/12/06 02:19:45;;;;;;;46.75;25.88;;;0.60;99.90;;;;;;5090350;28;20051;-81
2023/12/06 02:22:12;;;;;;;46.38;25.92;;;0.50;99.90;;;;;;5091891;28;20032;-79
2023/12/06 02:24:40;;;;;;;49.03;27.35;;;0.60;99.90;;;;;;5091580;28;20036;-79
2023/12/06 02:27:06;;;;;;;48.53;26.55;;;0.50;99.90;;;;;;5089961;28;20039;-81
2023/12/06 02:29:31;;;;;;;45.25;25.80;;;0.60;99.90;;;;;;5091338;28;20388;-79
2023/12/06 02:31:57;;;;;;;45.22;25.67;;;0.60;99.90;;;;;;5091322;28;20085;-83
2023/12/06 02:34:25;;;;;;;47.20;26.58;;;0.60;99.90;;;;;;5091489;28;20441;-79
2023/12/06 02:36:56;;;;;;;46.00;24.83;;;0.60;99.90;;;;;;5091059;28;20036;-78
2023/12/06 02:39:22;;;;;;;44.38;24.52;;;0.60;99.90;;;;;;5091764;28;20056;-79
2023/12/06 02:41:47;;;;;;;48.58;26.40;;;0.60;99.90;;;;;;5091183;28;20097;-79
2023/12/06 02:44:13;;;;;;;46.03;25.83;;;0.60;99.90;;;;;;5089911;28;20048;-82
2023/12/06 02:46:39;;;;;;;46.17;24.85;;;0.60;99.90;;;;;;5090556;28;20043;-85
2023/12/06 02:49:05;;;;;;;43.35;23.50;;;0.60;99.90;;;;;;5091198;28;20044;-84
2023/12/06 02:51:30;;;;;;;42.15;24.83;;;0.60;99.90;;;;;;5090177;28;20051;-82
2023/12/06 02:53:56;;;;;;;39.08;23.02;;;0.70;99.90;;;;;;5089561;28;20078;-83
2023/12/06 02:56:22;;;;;;;39.58;23.67;;;0.60;99.90;;;;;;5091126;28;20634;-82
2023/12/06 02:58:48;;;;;;;41.60;23.33;;;0.80;99.90;;;;;;5090974;28;20035;-79
2023/12/06 03:01:13;;;;;;;38.15;23.48;;;0.70;99.90;;;;;;5089456;28;20036;-80
2023/12/06 03:03:39;;;;;;;42.17;23.75;;;0.60;99.90;;;;;;5091078;28;20040;-81
2023/12/06 03:06:04;;;;;;;39.35;22.45;;;0.60;99.90;;;;;;5089121;28;20387;-78
2023/12/06 03:08:30;;;;;;;40.28;22.98;;;0.70;99.90;;;;;;5091541;28;20044;-78
2023/12/06 03:10:56;;;;;;;39.45;22.98;;;0.60;99.90;;;;;;5090945;28;20040;-78
2023/12/06 03:13:21;;;;;;;37.33;22.58;;;0.70;99.90;;;;;;5091711;28;20114;-80
2023/12/06 03:15:47;;;;;;;38.83;23.00;;;0.70;99.90;;;;;;5091314;28;20398;-78
2023/12/06 03:18:13;;;;;;;35.50;20.88;;;0.70;99.90;;;;;;5090617;28;20051;-78
2023/12/06 03:20:38;;;;;;;36.88;21.77;;;0.70;99.90;;;;;;5089759;28;20040;-78
2023/12/06 03:23:04;;;;;;;37.75;23.25;;;0.70;99.90;;;;;;5088683;28;20415;-81
2023/12/06 03:25:30;;;;;;;38.33;22.73;;;0.70;99.90;;;;;;5090493;28;20064;-81
2023/12/06 03:27:55;;;;;;;34.25;21.50;;;0.70;99.90;;;;;;5090356;28;20078;-80
2023/12/06 03:30:23;;;;;;;38.28;23.17;;;0.70;99.90;;;;;;5090433;28;20653;-80
2023/12/06 03:32:49;;;;;;;37.58;21.52;;;0.80;99.90;;;;;;5088607;28;20098;-80
2023/12/06 03:35:15;;;;;;;36.97;21.85;;;0.70;99.90;;;;;;5090338;28;20056;-79
2023/12/06 03:37:40;;;;;;;31.92;21.25;;;0.70;99.90;;;;;;5090469;28;20039;-82
2023/12/06 03:40:06;;;;;;;33.88;20.67;;;0.70;99.90;;;;;;5090525;28;20133;-84
2023/12/06 03:42:32;;;;;;;36.22;21.05;;;0.70;99.90;;;;;;5088860;28;20073;-81
2023/12/06 03:44:58;;;;;;;34.03;20.38;;;0.80;99.90;;;;;;5089833;28;20048;-81
2023/12/06 03:47:23;;;;;;;34.40;20.10;;;0.70;99.90;;;;;;5090628;28;20044;-84
2023/12/06 03:49:49;;;;;;;32.92;20.17;;;0.70;99.90;;;;;;5090112;28;20036;-82
2023/12/06 03:52:14;;;;;;;30.38;18.98;;;0.70;99.90;;;;;;5088767;28;20453;-80
2023/12/06 03:54:40;;;;;;;30.35;19.02;;;0.80;99.90;;;;;;5090135;28;20445;-85
2023/12/06 03:57:06;;;;;;;29.45;18.75;;;0.70;99.90;;;;;;5090018;28;20040;-81
2023/12/06 03:59:31;;;;;;;27.45;18.08;;;1.70;99.90;;;;;;5088116;28;20512;-82
2023/12/06 04:01:57;;;;;;;28.70;18.38;;;0.70;99.90;;;;;;5089436;28;20072;-80
2023/12/06 04:04:23;;;;;;;29.38;17.98;;;0.70;99.90;;;;;;5087905;28;20125;-80
2023/12/06 04:06:48;;;;;;;29.70;18.02;;;0.80;99.90;;;;;;5089365;28;20059;-82
2023/12/06 04:09:14;;;;;;;29.50;17.90;;;0.80;99.90;;;;;;5088304;28;20036;-81
2023/12/06 04:11:40;;;;;;;28.80;18.17;;;0.70;99.90;;;;;;5089839;28;20422;-84
2023/12/06 04:14:07;;;;;;;30.75;18.48;;;0.80;99.90;;;;;;5089835;28;20517;-82
2023/12/06 04:16:33;;;;;;;27.75;17.88;;;0.80;99.90;;;;;;5071052;28;20063;-85
2023/12/06 04:18:58;;;;;;;31.75;18.88;;;0.70;99.90;;;;;;5089503;28;20036;-82
2023/12/06 04:21:25;;;;;;;31.33;19.08;;;0.80;99.90;;;;;;5088784;28;20080;-81
2023/12/06 04:23:50;;;;;;;28.80;17.73;;;0.80;99.90;;;;;;5093697;28;20047;-82
2023/12/06 04:26:16;;;;;;;30.10;18.30;;;0.70;99.90;;;;;;5093696;28;20511;-84
2023/12/06 04:28:42;;;;;;;28.60;18.30;;;0.80;99.90;;;;;;5094043;28;20044;-81
2023/12/06 04:31:07;;;;;;;27.73;17.70;;;0.80;99.90;;;;;;5094220;28;20123;-82
2023/12/06 04:33:33;;;;;;;27.17;17.40;;;0.80;99.90;;;;;;5093341;28;20044;-84
2023/12/06 04:35:58;;;;;;;28.52;17.40;;;0.80;99.90;;;;;;5092209;28;20066;-85
2023/12/06 04:38:24;;;;;;;29.63;18.02;;;0.80;99.90;;;;;;5093305;28;20095;-81
2023/12/06 04:40:50;;;;;;;29.80;17.52;;;0.80;99.90;;;;;;5092433;28;20040;-81
2023/12/06 04:43:17;;;;;;;27.65;17.55;;;0.80;99.90;;;;;;5091908;28;20054;-82
2023/12/06 04:45:43;;;;;;;31.05;18.17;;;0.80;99.90;;;;;;5093488;28;20568;-80
2023/12/06 04:48:08;;;;;;;26.25;17.55;;;1.40;99.90;;;;;;5093538;28;20032;-85
2023/12/06 04:50:34;;;;;;;31.30;17.83;;;0.80;99.90;;;;;;5093456;28;20764;-84
2023/12/06 04:52:59;;;;;;;28.52;18.45;;;0.90;99.90;;;;;;5091513;28;20036;-84
2023/12/06 04:55:25;;;;;;;31.15;17.83;;;0.90;99.90;;;;;;5091589;28;20059;-81
2023/12/06 04:57:51;;;;;;;30.33;17.65;;;0.80;99.90;;;;;;5074676;28;20079;-82
2023/12/06 05:00:17;;;;;;;31.83;18.98;;;0.90;99.90;;;;;;5093439;28;20043;-80
2023/12/06 05:02:43;;;;;;;29.63;19.45;;;0.90;99.90;;;;;;5091899;28;20475;-81
2023/12/06 05:05:09;;;;;;;30.38;17.80;;;0.90;99.90;;;;;;5091581;28;20093;-83
2023/12/06 05:07:35;;;;;;;27.52;17.02;;;0.90;99.90;;;;;;5091197;28;20044;-82
2023/12/06 05:10:00;;;;;;;29.70;17.83;;;0.90;99.90;;;;;;5092944;28;20056;-84
2023/12/06 05:12:26;;;;;;;29.63;17.95;;;0.90;99.90;;;;;;5091270;28;20041;-80
2023/12/06 05:14:52;;;;;;;28.02;17.92;;;0.90;99.90;;;;;;5093073;28;20403;-81
2023/12/06 05:17:17;;;;;;;27.77;17.80;;;0.90;99.90;;;;;;5092819;28;20039;-79
2023/12/06 05:19:43;;;;;;;32.45;19.35;;;0.90;99.90;;;;;;5091104;28;20177;-85
2023/12/06 05:22:08;;;;;;;30.80;17.65;;;1.00;99.90;;;;;;5092574;28;20036;-80
2023/12/06 05:24:34;;;;;;;25.80;17.13;;;0.90;99.90;;;;;;5092110;28;20043;-80
2023/12/06 05:27:00;;;;;;;28.05;17.73;;;1.00;99.90;;;;;;5092747;28;20044;-85
2023/12/06 05:29:25;;;;;;;27.40;18.00;;;1.00;99.90;;;;;;5092729;28;20036;-79
2023/12/06 05:31:51;;;;;;;26.70;16.90;;;1.00;99.90;;;;;;5092927;28;20035;-84
2023/12/06 05:34:17;;;;;;;30.58;17.60;;;1.00;99.90;;;;;;5092296;28;20044;-79
2023/12/06 05:36:43;;;;;;;32.53;18.77;;;0.90;99.90;;;;;;5089718;28;20583;-81
2023/12/06 05:39:10;;;;;;;29.98;18.13;;;1.00;99.90;;;;;;5092210;28;20040;-79
2023/12/06 05:41:35;;;;;;;35.97;18.40;;;1.00;99.90;;;;;;5092691;28;20135;-84
2023/12/06 05:44:03;;;;;;;31.02;18.88;;;0.90;99.90;;;;;;5092372;28;20534;-80
2023/12/06 05:46:29;;;;;;;37.65;19.23;;;0.90;99.90;;;;;;5092020;28;20047;-78
2023/12/06 05:48:55;;;;;;;32.30;18.85;;;1.00;99.90;;;;;;5092127;28;20501;-78
2023/12/06 05:51:21;;;;;;;32.78;17.35;;;1.00;99.90;;;;;;5091333;28;20063;-85
2023/12/06 05:53:48;;;;;;;32.13;18.45;;;1.00;99.90;;;;;;5092181;28;20036;-83
2023/12/06 05:56:13;;;;;;;30.98;18.70;;;1.00;99.90;;;;;;5091587;28;20046;-85
2023/12/06 05:58:39;;;;;;;31.33;17.40;;;1.00;99.90;;;;;;5092390;28;20808;-80
2023/12/06 06:01:05;;;;;;;29.88;18.60;;;0.90;99.90;;;;;;5092020;28;20118;-80
2023/12/06 06:03:31;;;;;;;32.28;18.02;;;1.00;99.90;;;;;;5092167;28;20044;-84
2023/12/06 06:05:56;;;;;;;31.58;19.02;;;1.00;99.90;;;;;;5091387;28;20423;-79
2023/12/06 06:08:22;;;;;;;29.50;18.23;;;1.00;99.90;;;;;;5091946;28;20052;-78
2023/12/06 06:10:47;;;;;;;29.35;18.40;;;1.00;99.90;;;;;;5091612;28;20048;-79
2023/12/06 06:13:13;;;;;;;37.22;18.30;;;1.00;99.90;;;;;;5091592;28;20051;-79
2023/12/06 06:15:39;;;;;;;34.13;18.00;;;1.00;99.90;;;;;;5090318;28;20044;-79
2023/12/06 06:18:05;;;;;;;25.48;16.98;;;1.10;99.90;;;;;;5091427;28;20044;-85
2023/12/06 06:20:33;;;;;;;26.02;17.50;;;1.10;99.90;;;;;;5091590;28;20040;-79
2023/12/06 06:22:59;;;;;;;30.00;17.58;;;1.10;99.90;;;;;;5091965;28;20449;-78
2023/12/06 06:25:25;;;;;;;23.75;16.73;;;1.00;99.90;;;;;;5091493;28;20036;-79
2023/12/06 06:27:50;;;;;;;26.38;17.23;;;1.00;99.90;;;;;;5090178;28;20391;-84
2023/12/06 06:30:16;;;;;;;28.50;17.23;;;1.00;99.90;;;;;;5091482;28;20096;-79
2023/12/06 06:32:42;;;;;;;25.88;16.80;;;1.00;99.90;;;;;;5091394;28;20414;-79
2023/12/06 06:35:07;;;;;;;31.02;17.70;;;1.00;99.90;;;;;;5091336;28;20048;-81
2023/12/06 06:37:34;;;;;;;23.70;16.17;;;1.10;99.90;;;;;;5091025;28;20036;-82
2023/12/06 06:39:59;;;;;;;22.85;15.50;;;1.00;99.90;;;;;;5091181;28;20054;-80
2023/12/06 06:42:25;;;;;;;24.67;16.23;;;1.00;99.90;;;;;;5089463;28;20035;-78
2023/12/06 06:44:55;;;;;;;26.52;16.58;;;1.10;99.90;;;;;;5090670;28;20403;-84
2023/12/06 06:47:21;;;;;;;26.65;16.25;;;1.00;99.90;;;;;;5091429;28;20051;-84
2023/12/06 06:49:47;;;;;;;24.30;15.30;;;1.10;99.90;;;;;;5090860;28;20069;-79
2023/12/06 06:52:13;;;;;;;28.63;16.10;;;1.10;99.90;;;;;;5089879;28;20076;-78
2023/12/06 06:54:38;;;;;;;25.02;15.90;;;1.10;99.90;;;;;;5091335;28;20075;-77
2023/12/06 06:57:04;;;;;;;25.30;15.43;;;1.10;99.90;;;;;;5090509;28;20127;-81
2023/12/06 06:59:29;;;;;;;23.63;14.40;;;1.10;99.90;;;;;;5090706;28;20047;-79
2023/12/06 07:01:55;;;;;;;25.27;15.40;;;1.00;99.90;;;;;;5090624;28;20453;-78
2023/12/06 07:04:21;;;;;;;25.10;15.70;;;1.10;99.90;;;;;;5090894;28;20048;-83
2023/12/06 07:06:46;;;;;;;23.52;15.40;;;1.10;99.90;;;;;;5089498;28;20052;-79
2023/12/06 07:09:12;;;;;;;23.15;15.07;;;1.00;99.90;;;;;;5090927;28;20110;-80
2023/12/06 07:11:38;;;;;;;22.75;15.40;;;1.40;99.90;;;;;;5090993;28;20109;-78
2023/12/06 07:14:03;;;;;;;23.27;15.82;;;1.00;99.90;;;;;;5090847;28;20036;-78
2023/12/06 07:16:29;;;;;;;23.40;14.95;;;1.10;99.90;;;;;;5091015;28;20123;-83
2023/12/06 07:18:55;;;;;;;23.88;15.60;;;1.10;99.90;;;;;;5090606;28;20106;-82
2023/12/06 07:21:20;;;;;;;27.55;14.93;;;1.10;99.90;;;;;;5090589;28;20490;-79
2023/12/06 07:23:46;;;;;;;20.60;14.60;;;1.20;99.90;;;;;;5090588;28;20085;-81
2023/12/06 07:26:11;;;;;;;20.83;14.05;;;1.20;99.90;;;;;;5090497;28;20423;-78
2023/12/06 07:28:37;;;;;;;23.35;15.02;;;1.10;99.90;;;;;;5090053;28;20475;-79
2023/12/06 07:31:03;;;;;;;22.30;14.43;;;1.10;99.90;;;;;;5090551;28;20040;-80
2023/12/06 07:33:29;;;;;;;27.10;14.77;;;1.10;99.90;;;;;;5090503;28;20072;-84
2023/12/06 07:35:54;;;;;;;21.40;14.32;;;1.10;99.90;;;;;;5090711;28;20047;-84
2023/12/06 07:38:21;;;;;;;23.80;15.75;;;1.20;99.90;;;;;;5090009;28;20395;-77
2023/12/06 07:40:47;;;;;;;22.55;14.07;;;1.10;99.90;;;;;;5084087;28;20047;-76
2023/12/06 07:43:13;;;;;;;26.67;14.60;;;1.10;99.90;;;;;;5090699;28;20643;-79
2023/12/06 07:45:39;;;;;;;23.30;15.23;;;1.20;99.90;;;;;;5089879;28;20082;-84
2023/12/06 07:48:04;;;;;;;25.02;15.70;;;1.10;99.90;;;;;;5090042;28;20717;-83
2023/12/06 07:50:30;;;;;;;21.00;14.25;;;1.70;99.90;;;;;;5090416;28;20044;-78
2023/12/06 07:52:56;;;;;;;23.15;15.65;;;1.20;99.90;;;;;;5081939;28;20106;-84
2023/12/06 07:55:22;;;;;;;26.73;14.70;;;1.20;99.90;;;;;;5089477;28;20585;-78
2023/12/06 07:57:48;;;;;;;22.85;14.82;;;1.10;99.90;;;;;;5093348;28;20059;-78
2023/12/06 08:00:14;;;;;;;25.85;15.07;;;1.10;99.90;;;;;;5094189;28;20051;-81
2023/12/06 08:02:42;;;;;;;23.17;14.73;;;1.10;99.90;;;;;;5094635;28;20071;-80
2023/12/06 08:05:10;;;;;;;20.60;13.85;;;1.10;99.90;;;;;;5094121;28;20052;-79
2023/12/06 08:07:39;;;;;;;26.92;15.00;;;1.20;99.90;;;;;;5094138;28;20091;-78
2023/12/06 08:10:12;;;;;;;23.10;14.80;;;1.20;99.90;;;;;;5093866;28;20032;-81
2023/12/06 08:12:38;;;;;;;23.13;14.43;;;1.20;99.90;;;;;;5093192;28;20070;-79
2023/12/06 08:15:04;;;;;;;23.38;15.52;;;1.20;99.90;;;;;;5094103;28;20044;-83
2023/12/06 08:17:30;;;;;;;25.38;14.50;;;1.20;99.90;;;;;;5093883;28;20040;-78
2023/12/06 08:19:55;;;;;;;23.05;14.75;;;1.20;99.90;;;;;;5094093;28;20043;-82
2023/12/06 08:22:21;;;;;;;25.70;16.00;;;1.20;99.90;;;;;;5093967;28;20141;-81
2023/12/06 08:24:47;;;;;;;23.13;14.85;;;1.20;99.90;;;;;;5094110;28;20552;-79
2023/12/06 08:27:14;;;;;;;23.40;15.57;;;1.20;99.90;;;;;;5093848;28;20059;-78
2023/12/06 08:29:40;;;;;;;26.02;14.95;;;1.30;99.90;;;;;;5093754;28;20040;-83
2023/12/06 08:32:06;;;;;;;24.17;15.18;;;1.30;99.90;;;;;;5093561;28;20047;-79
2023/12/06 08:34:32;;;;;;;23.27;14.45;;;1.20;99.90;;;;;;5093846;28;20935;-83
2023/12/06 08:36:57;;;;;;;24.05;15.43;;;1.30;99.90;;;;;;5093782;28;20044;-77
2023/12/06 08:39:23;;;;;;;25.40;14.13;;;1.30;99.90;;;;;;5094182;28;20036;-84
2023/12/06 08:41:49;;;;;;;23.52;14.85;;;1.40;99.90;;;;;;5093715;28;20089;-81
2023/12/06 08:44:14;;;;;;;24.20;15.40;;;1.40;99.90;;;;;;5091960;28;20586;-77
2023/12/06 08:46:42;;;;;;;25.92;15.52;;;1.40;99.90;;;;;;5093443;28;20121;-79
2023/12/06 08:49:08;;;;;;;24.35;14.45;;;1.40;99.90;;;;;;5093709;28;20044;-79
2023/12/06 08:51:33;;;;;;;23.10;14.40;;;1.40;99.90;;;;;;5091718;28;20044;-80
2023/12/06 08:53:59;;;;;;;24.95;16.02;;;1.50;99.90;;;;;;5093408;28;20379;-79
2023/12/06 08:56:25;;;;;;;24.98;15.43;;;1.50;99.90;;;;;;5093843;28;20066;-79
2023/12/06 08:58:50;;;;;;;27.08;15.85;;;1.50;99.90;;;;;;5093476;28;20052;-79
2023/12/06 09:01:16;;;;;;;24.13;15.57;;;1.60;99.90;;;;;;5093077;28;20080;-80
2023/12/06 09:03:42;;;;;;;25.27;14.90;;;1.60;99.90;;;;;;5093053;28;20048;-79
2023/12/06 09:06:09;;;;;;;24.02;15.40;;;1.50;99.90;;;;;;5092614;28;20427;-82
2023/12/06 09:08:34;;;;;;;28.10;15.65;;;1.60;99.90;;;;;;5092652;28;20048;-80
2023/12/06 09:11:00;;;;;;;21.98;14.93;;;1.60;99.90;;;;;;5091491;28;20044;-80
2023/12/06 09:13:26;;;;;;;26.05;15.07;;;1.70;99.90;;;;;;5093315;28;20883;-79
2023/12/06 09:15:52;;;;;;;26.85;16.33;;;1.70;99.90;;;;;;5093169;28;20059;-78
2023/12/06 09:18:18;;;;;;;20.00;15.50;;;1.70;99.90;;;;;;5092820;28;20420;-80
2023/12/06 09:20:44;;;;;;;23.17;15.93;;;1.70;99.90;;;;;;5091392;28;20048;-82
2023/12/06 09:23:09;;;;;;;33.17;16.70;;;1.70;99.90;;;;;;5090895;28;20044;-78
2023/12/06 09:25:36;;;;;;;23.95;15.35;;;1.70;99.90;;;;;;5090650;28;20052;-81
2023/12/06 09:28:03;;;;;;;23.13;14.32;;;1.80;99.90;;;;;;5093135;28;20040;-83
2023/12/06 09:30:29;;;;;;;24.13;14.93;;;1.70;99.90;;;;;;5093073;28;20043;-78
2023/12/06 09:32:56;;;;;;;24.27;13.95;;;1.70;99.90;;;;;;5092734;28;20043;-79
2023/12/06 09:35:22;;;;;;;23.60;14.45;;;1.70;99.90;;;;;;5091409;28;20055;-76
2023/12/06 09:37:49;;;;;;;25.33;14.18;;;1.70;99.90;;;;;;5092050;28;20090;-79
2023/12/06 09:40:15;;;;;;;23.42;14.40;;;1.80;99.90;;;;;;5092386;28;20052;-83
2023/12/06 09:42:46;;;;;;;22.95;15.02;;;1.80;99.90;;;;;;5092811;28;20028;-84
2023/12/06 09:45:14;;;;;;;22.95;14.73;;;1.90;99.90;;;;;;5092938;28;20052;-82
2023/12/06 09:47:42;;;;;;;24.73;14.95;;;1.80;99.90;;;;;;5090733;28;20468;-79
2023/12/06 09:50:10;;;;;;;22.45;14.45;;;2.80;99.90;;;;;;5091715;28;20179;-84
2023/12/06 09:52:35;;;;;;;22.92;13.80;;;1.90;99.90;;;;;;5090021;28;20048;-78
2023/12/06 09:55:01;;;;;;;23.95;14.52;;;1.90;99.90;;;;;;5090913;28;20075;-83
2023/12/06 09:57:27;;;;;;;24.33;13.63;;;2.00;99.90;;;;;;5091066;28;20044;-80
2023/12/06 09:59:53;;;;;;;21.05;13.00;;;2.00;99.90;;;;;;5091241;28;20119;-78
2023/12/06 10:02:18;;;;;;;17.77;12.82;;;2.00;99.90;;;;;;5092030;28;20064;-78
2023/12/06 10:04:44;;;;;;;20.80;13.40;;;2.00;99.90;;;;;;5089962;28;20040;-78
2023/12/06 10:07:10;;;;;;;20.95;12.95;;;2.10;99.90;;;;;;5091791;28;20044;-78
2023/12/06 10:09:36;;;;;;;22.55;12.35;;;2.10;99.90;;;;;;5067299;28;20048;-79
2023/12/06 10:12:09;;;;;;;20.83;11.77;;;2.10;99.90;;;;;;5088352;28;20052;-85
2023/12/06 10:14:34;;;;;;;15.40;11.15;;;2.10;99.90;;;;;;5092188;28;20121;-79
2023/12/06 10:17:00;;;;;;;18.00;10.90;;;2.00;99.90;;;;;;5092074;28;20467;-79
2023/12/06 10:19:26;;;;;;;18.30;12.40;;;2.00;99.90;;;;;;5091036;28;20032;-77
2023/12/06 10:21:53;;;;;;;19.38;12.25;;;2.40;99.90;;;;;;5091505;28;20822;-79
2023/12/06 10:24:18;;;;;;;21.10;13.55;;;2.40;99.90;;;;;;5091560;28;20054;-80
2023/12/06 10:26:46;;;;;;;20.63;12.20;;;2.10;99.90;;;;;;5089965;28;20047;-77
2023/12/06 10:29:12;;;;;;;18.48;13.50;;;2.10;99.90;;;;;;5091633;28;20040;-85
2023/12/06 10:31:42;;;;;;;22.90;12.82;;;2.10;99.90;;;;;;5091675;28;20043;-79
2023/12/06 10:34:09;;;;;;;21.10;12.30;;;2.00;99.90;;;;;;5091353;28;20421;-78
2023/12/06 10:36:38;;;;;;;20.55;11.63;;;2.10;99.90;;;;;;5091470;28;20044;-83
2023/12/06 10:39:11;;;;;;;18.85;11.73;;;2.10;99.90;;;;;;5091079;28;20459;-78
2023/12/06 10:41:41;;;;;;;20.40;12.05;;;2.10;99.90;;;;;;5091524;28;20040;-82
2023/12/06 10:44:09;;;;;;;20.02;12.15;;;2.10;99.90;;;;;;5090868;28;20521;-79
2023/12/06 10:46:36;;;;;;;21.20;13.57;;;2.10;99.90;;;;;;5090987;28;20721;-80
2023/12/06 10:49:04;;;;;;;21.77;13.43;;;2.20;99.90;;;;;;5090001;28;20044;-78
2023/12/06 10:51:30;;;;;;;16.10;11.63;;;2.80;99.90;;;;;;5091221;28;20047;-82
2023/12/06 10:53:59;;;;;;;21.42;13.30;;;2.20;99.90;;;;;;5090837;28;20039;-79
2023/12/06 10:56:27;;;;;;;22.95;12.25;;;2.20;99.90;;;;;;5089614;28;20217;-82
2023/12/06 10:58:57;;;;;;;18.70;13.20;;;2.10;99.90;;;;;;5090999;28;20059;-79
2023/12/06 11:01:24;;;;;;;21.88;12.32;;;2.20;99.90;;;;;;5091105;28;20048;-80
2023/12/06 11:03:52;;;;;;;18.55;11.50;;;2.20;99.90;;;;;;5089644;28;20052;-81
2023/12/06 11:06:38;;;;;;;14.48;10.70;;;2.30;99.90;;;;;;5088979;28;20059;-80
2023/12/06 11:09:20;;;;;;;18.55;10.60;;;2.20;99.90;;;;;;5090241;28;20071;-77
2023/12/06 11:11:49;;;;;;;19.20;11.00;;;2.20;99.90;;;;;;5090941;28;20048;-76
2023/12/06 11:14:20;;;;;;;20.10;11.40;;;2.20;99.90;;;;;;5082407;28;20054;-79
2023/12/06 11:17:13;;;;;;;18.33;11.43;;;2.30;99.90;;;;;;5090405;28;20044;-80
2023/12/06 11:19:40;;;;;;;17.95;11.73;;;2.20;99.90;;;;;;5084964;28;20044;-76
2023/12/06 11:22:07;;;;;;;21.52;13.05;;;2.30;99.90;;;;;;5090778;28;20044;-76
2023/12/06 11:24:35;;;;;;;23.20;12.05;;;2.30;99.90;;;;;;5090404;28;20655;-78
2023/12/06 11:27:00;;;;;;;17.70;11.65;;;2.30;99.90;;;;;;5090390;28;20044;-82
2023/12/06 11:29:27;;;;;;;21.33;11.68;;;2.30;99.90;;;;;;5090323;28;20056;-77
2023/12/06 11:32:00;;;;;;;17.90;11.45;;;2.30;99.90;;;;;;5090409;28;20471;-77
2023/12/06 11:34:37;;;;;;;17.67;10.77;;;2.30;99.90;;;;;;5090683;28;20048;-78
2023/12/06 11:37:06;;;;;;;19.70;10.50;;;2.40;99.90;;;;;;5090527;28;20043;-76
2023/12/06 11:39:32;;;;;;;19.10;11.20;;;2.30;99.90;;;;;;5088316;28;20441;-79
2023/12/06 11:41:59;;;;;;;17.58;11.05;;;2.30;99.90;;;;;;5089908;28;20104;-81
2023/12/06 11:44:25;;;;;;;15.10;10.27;;;2.40;99.90;;;;;;5090593;28;20036;-77
2023/12/06 11:46:52;;;;;;;16.92;10.45;;;2.40;99.90;;;;;;5090483;28;20731;-78
2023/12/06 11:49:26;;;;;;;16.05;10.10;;;2.40;99.90;;;;;;5089894;28;20495;-80
2023/12/06 11:52:02;;;;;;;16.03;9.70;;;2.40;99.90;;;;;;5081529;28;20051;-80
2023/12/06 11:54:34;;;;;;;17.45;10.65;;;2.40;99.90;;;;;;5090361;28;20044;-77
2023/12/06 11:57:11;;;;;;;18.67;11.00;;;2.40;99.90;;;;;;5082019;28;20600;-83
2023/12/06 11:59:39;;;;;;;18.67;10.68;;;2.40;99.90;;;;;;5090626;28;20044;-81
2023/12/06 12:02:06;;;;;;;16.70;10.73;;;2.50;99.90;;;;;;5090022;28;20086;-77
2023/12/06 12:04:33;;;;;;;18.60;10.35;;;2.40;99.90;;;;;;5088634;28;20392;-77
2023/12/06 12:07:00;;;;;;;18.30;10.50;;;2.40;99.90;;;;;;5089846;28;20113;-81
2023/12/06 12:09:26;;;;;;;14.18;9.55;;;3.30;99.90;;;;;;5089747;28;20540;-77
2023/12/06 12:11:53;;;;;;;13.70;9.63;;;2.90;99.90;;;;;;5089960;28;20114;-77
2023/12/06 12:14:18;;;;;;;15.85;9.07;;;2.40;99.90;;;;;;5090109;28;20487;-79
2023/12/06 12:16:44;;;;;;;20.52;9.50;;;2.50;99.90;;;;;;5090268;28;20047;-83
2023/12/06 12:19:11;;;;;;;15.32;9.52;;;2.40;99.90;;;;;;5088349;28;20044;-82
2023/12/06 12:21:37;;;;;;;13.73;9.43;;;2.40;99.90;;;;;;5089544;28;20537;-78
2023/12/06 12:24:02;;;;;;;12.55;8.95;;;2.40;99.90;;;;;;5089651;28;20052;-76
2023/12/06 12:26:29;;;;;;;16.75;8.77;;;2.40;99.90;;;;;;5089801;28;20052;-80
2023/12/06 12:28:56;;;;;;;18.63;9.02;;;2.40;99.90;;;;;;5089283;28;20040;-81
2023/12/06 12:31:28;;;;;;;17.48;9.50;;;2.40;99.90;;;;;;5088468;28;20071;-77
2023/12/06 12:33:55;;;;;;;17.00;10.32;;;2.40;99.90;;;;;;5090638;28;20093;-76